»·PEaware :: N31SL KSMO-KPSP

N31SL :: KSMO-KPSP

FLIGHT INFORMATION

Flight Status: Arrived
Operator: Privately registered:
United States
More flights under this callsign
Pilot: Andrew S. (20703)
Aircraft: Unknown
(DA62)
More flights by this aircraft type
Origin: KSMO Santa Monica Mun
United States
Destination: KPSP Palm Springs Intl
United States
More flights between these airports :: More routes between these airports
Route: SMO VNY V186 PDZ V388 PSP
File this flight plan on PilotEdge
Remarks:
Altitude:
(Current/Filed)
9,000ft
Speed:
(Current/Filed)
185kts
Departed: 05-Jan-19 08:56 PM
Arrived: 05-Jan-19 09:48 PM
Distance/Time
Traveled:
97nm/0:52
Distance/Time
To Go:
Arrived

Flight Plot

Page will automatically refresh every two minutes.


Map Options




Map Legend


Flown Route
Filed Route
Departure Airport
Arrival Airport
Navaid (VOR, NDB)
Fix

Horizontal Profiles

Position Reports

Time Latitude Longitude Heading Altitude Ground
Speed
05-Jan-19 20:35 34.015970 -118.453329 75 173ft 0kts
05-Jan-19 20:36 34.015970 -118.453329 75 173ft 0kts
05-Jan-19 20:37 34.015970 -118.453329 75 173ft 0kts
05-Jan-19 20:38 34.015970 -118.453329 75 173ft 0kts
05-Jan-19 20:39 34.015970 -118.453329 75 173ft 0kts
05-Jan-19 20:40 34.015970 -118.453329 75 173ft 0kts
05-Jan-19 20:41 34.015970 -118.453329 75 173ft 0kts
05-Jan-19 20:42 34.015970 -118.453329 75 173ft 0kts
05-Jan-19 20:43 34.015970 -118.453329 75 173ft 0kts
05-Jan-19 20:44 34.015970 -118.453329 75 173ft 0kts
05-Jan-19 20:45 34.015970 -118.453329 75 173ft 0kts
05-Jan-19 20:46 34.015970 -118.453329 75 173ft 0kts
05-Jan-19 20:47 34.015970 -118.453329 75 173ft 0kts
05-Jan-19 20:48 34.015970 -118.453329 75 173ft 0kts
05-Jan-19 20:49 34.015970 -118.453329 75 173ft 0kts
05-Jan-19 20:50 34.015970 -118.453329 75 173ft 0kts
05-Jan-19 20:51 34.015989 -118.453155 88 173ft 6kts
05-Jan-19 20:52 34.013443 -118.455226 223 173ft 13kts
05-Jan-19 20:53 34.012837 -118.455785 161 173ft 0kts
05-Jan-19 20:54 34.012648 -118.455080 56 173ft 0kts
05-Jan-19 20:55 34.024029 -118.443873 38 661ft 80kts
05-Jan-19 20:56 34.046231 -118.422533 41 1602ft 113kts
05-Jan-19 20:57 34.069177 -118.400944 41 3012ft 95kts
05-Jan-19 20:58 34.095180 -118.411493 331 4180ft 111kts
05-Jan-19 20:59 34.122740 -118.429912 333 5338ft 117kts
05-Jan-19 21:00 34.152152 -118.448245 331 6493ft 122kts
05-Jan-19 21:01 34.182653 -118.466889 327 7648ft 124kts
05-Jan-19 21:02 34.213694 -118.485562 336 8801ft 128kts
05-Jan-19 21:03 34.231222 -118.454807 140 9021ft 147kts
05-Jan-19 21:04 34.203777 -118.414859 127 9017ft 164kts
05-Jan-19 21:05 34.184282 -118.363695 120 9016ft 169kts
05-Jan-19 21:06 34.166988 -118.310433 119 9016ft 170kts
05-Jan-19 21:07 34.150144 -118.257206 119 9021ft 168kts
05-Jan-19 21:08 34.133351 -118.204960 120 9026ft 166kts
05-Jan-19 21:09 34.116784 -118.153446 119 9032ft 163kts
05-Jan-19 21:10 34.101503 -118.102045 113 9038ft 163kts
05-Jan-19 21:11 34.087115 -118.046033 111 9049ft 190kts
05-Jan-19 21:12 34.068674 -117.983969 112 9043ft 200kts
05-Jan-19 21:13 34.049234 -117.920612 112 9040ft 202kts
05-Jan-19 21:14 34.029702 -117.857234 115 9066ft 198kts
05-Jan-19 21:15 34.012378 -117.800953 116 9020ft 167kts
05-Jan-19 21:16 33.996040 -117.749813 118 9018ft 160kts
05-Jan-19 21:17 33.978499 -117.699999 118 8930ft 160kts
05-Jan-19 21:18 33.961241 -117.651022 117 8886ft 165kts
05-Jan-19 21:19 33.941518 -117.595247 116 8920ft 191kts
05-Jan-19 21:20 33.920417 -117.535499 116 8955ft 190kts
05-Jan-19 21:21 33.920807 -117.475382 93 8928ft 171kts
05-Jan-19 21:22 33.923114 -117.418666 94 8943ft 168kts
05-Jan-19 21:23 33.925369 -117.362276 94 8955ft 169kts
05-Jan-19 21:24 33.927805 -117.305962 94 8957ft 168kts
05-Jan-19 21:25 33.930225 -117.250398 94 8958ft 164kts
05-Jan-19 21:26 33.932393 -117.194835 88 8950ft 175kts
05-Jan-19 21:27 33.935075 -117.132536 88 8955ft 193kts
05-Jan-19 21:28 33.937433 -117.068440 89 9395ft 172kts
05-Jan-19 21:29 33.939271 -117.015578 92 10384ft 158kts
05-Jan-19 21:31 33.941121 -116.961736 92 10957ft 174kts
05-Jan-19 21:32 33.943297 -116.899401 91 10953ft 192kts
05-Jan-19 21:33 33.945537 -116.834621 91 10959ft 195kts
05-Jan-19 21:34 33.947761 -116.769000 91 10968ft 196kts
05-Jan-19 21:35 33.940145 -116.705529 112 10798ft 200kts
05-Jan-19 21:36 33.922834 -116.637543 109 9818ft 219kts
05-Jan-19 21:37 33.905022 -116.567205 108 8827ft 220kts
05-Jan-19 21:38 33.887385 -116.497834 106 6918ft 210kts
05-Jan-19 21:39 33.864061 -116.438390 162 5039ft 193kts
05-Jan-19 21:40 33.827748 -116.424034 112 4986ft 135kts
05-Jan-19 21:41 33.805425 -116.381422 136 3768ft 171kts
05-Jan-19 21:42 33.769696 -116.345874 166 2147ft 158kts
05-Jan-19 21:43 33.756461 -116.377039 291 1397ft 126kts
05-Jan-19 21:44 33.771889 -116.416568 303 1391ft 133kts
05-Jan-19 21:45 33.784698 -116.453355 277 1310ft 92kts
05-Jan-19 21:46 33.796293 -116.478591 316 1190ft 88kts
05-Jan-19 21:47 33.815910 -116.495471 323 675ft 84kts
05-Jan-19 21:48 33.828515 -116.508228 215 481ft 19kts

Navigation Log

Ident Type
Flight plan parsing failed, navigation log unavailable